Time;durP1;ratioP1;P1;durP2;ratioP2;P2;SDS_P1;SDS_P2;PMS_P1;PMS_P2;Temp;Humidity;BMP_temperature;BMP_pressure;BME280_temperature;BME280_humidity;BME280_pressure;Samples;Min_cycle;Max_cycle;Signal;HPM_P1;HPM_P2
2022/02/18 00:01:47;;;;;;;46.55;23.60;;;7.10;99.90;;;;;;5032620;28;20400;-70
2022/02/18 00:04:52;;;;;;;60.65;22.48;;;7.00;99.90;;;;;;5031491;28;20531;-69
2022/02/18 00:07:56;;;;;;;60.72;24.33;;;6.90;99.90;;;;;;5031261;28;20044;-69
2022/02/18 00:11:02;;;;;;;29.15;12.43;;;6.90;99.90;;;;;;5030830;28;20056;-69
2022/02/18 00:14:06;;;;;;;41.17;17.00;;;6.80;99.90;;;;;;5031235;28;20396;-70
2022/02/18 00:17:11;;;;;;;38.53;16.17;;;6.80;99.90;;;;;;5032248;28;20039;-70
2022/02/18 00:20:16;;;;;;;32.28;15.63;;;6.80;99.90;;;;;;5032674;28;20040;-70
2022/02/18 00:23:21;;;;;;;47.47;24.20;;;6.70;99.90;;;;;;5032857;28;20052;-70
2022/02/18 00:26:25;;;;;;;26.88;16.48;;;6.70;99.90;;;;;;5035280;28;20503;-69
2022/02/18 00:29:30;;;;;;;23.38;14.45;;;6.80;99.90;;;;;;5033503;28;20416;-70
2022/02/18 00:32:38;;;;;;;32.33;14.70;;;6.70;99.90;;;;;;5033814;28;20520;-70
2022/02/18 00:35:42;;;;;;;24.63;14.23;;;6.70;99.90;;;;;;5032728;28;20040;-68
2022/02/18 00:38:46;;;;;;;13.20;8.07;;;6.70;99.90;;;;;;5031630;28;20044;-68
2022/02/18 00:41:50;;;;;;;11.88;6.03;;;6.60;99.90;;;;;;5033404;28;20052;-68
2022/02/18 00:44:56;;;;;;;14.30;6.00;;;6.60;99.90;;;;;;5033181;28;20044;-68
2022/02/18 00:48:01;;;;;;;15.02;6.32;;;6.50;99.90;;;;;;5033877;28;20384;-68
2022/02/18 00:51:06;;;;;;;12.55;6.07;;;6.50;99.90;;;;;;5032174;28;20048;-68
2022/02/18 00:54:10;;;;;;;10.75;7.50;;;6.50;99.90;;;;;;5031579;28;20040;-68
2022/02/18 00:57:14;;;;;;;13.07;8.10;;;6.40;99.90;;;;;;5032859;28;20052;-69
2022/02/18 01:00:20;;;;;;;15.93;9.75;;;6.40;99.90;;;;;;5029978;28;20511;-68
2022/02/18 01:03:24;;;;;;;16.52;6.82;;;6.40;99.90;;;;;;5040519;28;20044;-68
2022/02/18 01:06:28;;;;;;;13.95;7.43;;;6.50;99.90;;;;;;5030755;28;20045;-69
2022/02/18 01:09:34;;;;;;;18.38;10.85;;;6.50;99.90;;;;;;5031527;28;20045;-68
2022/02/18 01:12:39;;;;;;;19.60;9.73;;;6.50;99.90;;;;;;5029937;28;20057;-67
2022/02/18 01:15:43;;;;;;;18.40;9.82;;;6.40;99.90;;;;;;5030711;28;20399;-68
2022/02/18 01:18:47;;;;;;;18.40;10.32;;;6.30;99.90;;;;;;5029784;28;20072;-68
2022/02/18 01:21:51;;;;;;;15.98;10.32;;;6.30;99.90;;;;;;5029599;28;20044;-68
2022/02/18 01:24:57;;;;;;;22.50;12.07;;;6.20;99.90;;;;;;5042735;28;20052;-68
2022/02/18 01:28:01;;;;;;;21.90;13.07;;;6.10;99.90;;;;;;5030862;28;20594;-68
2022/02/18 01:31:04;;;;;;;18.23;11.38;;;6.10;99.90;;;;;;5031378;28;20048;-68
2022/02/18 01:34:09;;;;;;;17.60;10.95;;;6.00;99.90;;;;;;5032106;28;20061;-68
2022/02/18 01:37:13;;;;;;;28.02;14.48;;;6.00;99.90;;;;;;5041535;28;20056;-68
2022/02/18 01:40:17;;;;;;;22.98;12.60;;;5.90;99.90;;;;;;5029082;28;20070;-69
2022/02/18 01:43:21;;;;;;;18.65;7.43;;;5.80;99.90;;;;;;5030219;28;20052;-68
2022/02/18 01:46:27;;;;;;;16.10;8.10;;;5.80;99.90;;;;;;5029194;28;20045;-68
2022/02/18 01:49:31;;;;;;;10.98;6.93;;;5.80;99.90;;;;;;5029790;28;20056;-68
2022/02/18 01:52:39;;;;;;;17.35;7.63;;;5.70;99.90;;;;;;5030207;28;20107;-68
2022/02/18 01:55:44;;;;;;;14.10;7.43;;;5.60;99.90;;;;;;5028906;28;20041;-68
2022/02/18 01:58:48;;;;;;;13.75;7.97;;;5.60;99.90;;;;;;5032063;28;20052;-68
2022/02/18 02:01:52;;;;;;;28.83;14.93;;;5.50;99.90;;;;;;5032617;28;20491;-68
2022/02/18 02:05:00;;;;;;;27.42;16.38;;;5.50;99.90;;;;;;5033293;28;20068;-68
2022/02/18 02:08:06;;;;;;;29.42;18.08;;;5.50;99.90;;;;;;5033914;28;20060;-68
2022/02/18 02:11:11;;;;;;;22.33;12.10;;;5.50;99.90;;;;;;5022440;28;20040;-68
2022/02/18 02:14:16;;;;;;;23.17;14.25;;;5.40;99.90;;;;;;5034706;28;20060;-68
2022/02/18 02:17:21;;;;;;;34.60;19.63;;;5.40;99.90;;;;;;5034865;28;20044;-68
2022/02/18 02:20:27;;;;;;;26.17;14.40;;;5.40;99.90;;;;;;5045399;28;20044;-68
2022/02/18 02:23:33;;;;;;;28.33;17.20;;;5.40;99.90;;;;;;5034145;28;20052;-68
2022/02/18 02:26:39;;;;;;;34.53;20.85;;;5.40;99.90;;;;;;5043055;28;20052;-68
2022/02/18 02:29:47;;;;;;;42.20;22.50;;;5.50;99.90;;;;;;5031538;28;20523;-68
2022/02/18 02:32:52;;;;;;;50.80;25.40;;;5.60;99.90;;;;;;5043688;28;20519;-68
2022/02/18 02:35:56;;;;;;;55.00;29.13;;;5.60;99.90;;;;;;5032306;28;20048;-68
2022/02/18 02:39:01;;;;;;;51.90;29.10;;;5.60;99.90;;;;;;5032379;28;20056;-68
2022/02/18 02:42:07;;;;;;;52.55;30.52;;;5.60;99.90;;;;;;5032630;28;20048;-68
2022/02/18 02:45:14;;;;;;;51.08;30.25;;;5.70;99.90;;;;;;5031626;28;20045;-68
2022/02/18 02:48:18;;;;;;;48.85;29.73;;;5.60;99.90;;;;;;5031213;28;20045;-68
2022/02/18 02:51:33;;;;;;;47.15;26.48;;;5.70;99.90;;;;;;5044121;28;20503;-68
2022/02/18 02:54:38;;;;;;;38.40;22.02;;;5.60;99.90;;;;;;5033181;28;20396;-68
2022/02/18 02:57:50;;;;;;;34.20;19.20;;;5.60;99.90;;;;;;5045130;28;20041;-68
2022/02/18 03:00:55;;;;;;;29.02;17.90;;;5.60;99.90;;;;;;5033288;28;20052;-68
2022/02/18 03:04:19;;;;;;;23.42;15.02;;;5.60;99.90;;;;;;5034491;28;20072;-68
2022/02/18 03:07:24;;;;;;;25.95;15.88;;;5.60;99.90;;;;;;5031261;28;20040;-68
2022/02/18 03:11:14;;;;;;;22.83;14.05;;;5.60;99.90;;;;;;5034184;28;20044;-68
2022/02/18 03:14:14;;;;;;;27.85;14.75;;;5.60;99.90;;;;;;5032177;28;20049;-68
2022/02/18 03:17:30;;;;;;;23.10;14.35;;;5.60;99.90;;;;;;5042403;28;20502;-68
2022/02/18 03:20:53;;;;;;;25.55;16.02;;;5.50;99.90;;;;;;5031932;28;20493;-68
2022/02/18 03:23:56;;;;;;;27.08;16.35;;;5.50;99.90;;;;;;5031577;28;20040;-68
2022/02/18 03:27:01;;;;;;;41.47;22.70;;;5.50;99.90;;;;;;5031001;28;20045;-68
2022/02/18 03:30:10;;;;;;;36.08;21.75;;;5.40;99.90;;;;;;5030583;28;20056;-68
2022/02/18 03:33:16;;;;;;;44.17;25.02;;;5.30;99.90;;;;;;5030756;28;20053;-68
2022/02/18 03:36:20;;;;;;;36.90;20.88;;;5.20;99.90;;;;;;5042182;28;20534;-68
2022/02/18 03:39:25;;;;;;;49.30;26.90;;;5.20;99.90;;;;;;5031418;28;20072;-68
2022/02/18 03:42:29;;;;;;;50.78;26.55;;;5.20;99.90;;;;;;5032389;28;20052;-68
2022/02/18 03:45:34;;;;;;;40.58;25.05;;;5.20;99.90;;;;;;5043683;28;20056;-68
2022/02/18 03:48:38;;;;;;;40.67;23.52;;;5.10;99.90;;;;;;5033742;28;20048;-68
2022/02/18 03:51:42;;;;;;;41.28;22.23;;;5.00;99.90;;;;;;5033504;28;20117;-68
2022/02/18 03:54:47;;;;;;;38.55;21.48;;;5.00;99.90;;;;;;5020809;28;20070;-68
2022/02/18 03:57:53;;;;;;;36.70;21.65;;;5.00;99.90;;;;;;5032426;28;20052;-68
2022/02/18 04:01:01;;;;;;;39.08;24.52;;;5.00;99.90;;;;;;5030983;28;20036;-68
2022/02/18 04:04:05;;;;;;;49.30;29.75;;;5.00;99.90;;;;;;5031088;28;20495;-68
2022/02/18 04:07:23;;;;;;;48.67;28.60;;;5.00;99.90;;;;;;5030938;28;20036;-68
2022/02/18 04:10:33;;;;;;;50.10;28.42;;;5.10;99.90;;;;;;5030829;28;20036;-68
2022/02/18 04:13:41;;;;;;;61.78;33.65;;;5.10;99.90;;;;;;5029983;28;20401;-68
2022/02/18 04:16:44;;;;;;;58.67;32.53;;;5.20;99.90;;;;;;5029926;28;20056;-68
2022/02/18 04:19:57;;;;;;;44.30;26.00;;;5.20;99.90;;;;;;5030567;28;20056;-68
2022/02/18 04:23:10;;;;;;;39.58;25.23;;;5.20;99.90;;;;;;5030919;28;20044;-68
2022/02/18 04:26:15;;;;;;;48.15;24.73;;;5.10;99.90;;;;;;5042150;28;20416;-68
2022/02/18 04:29:20;;;;;;;44.70;27.05;;;5.10;99.90;;;;;;5030092;28;20056;-68
2022/02/18 04:32:23;;;;;;;60.08;30.40;;;5.10;99.90;;;;;;5030942;28;20048;-68
2022/02/18 04:35:27;;;;;;;56.75;31.42;;;5.00;99.90;;;;;;5030653;28;20056;-68
2022/02/18 04:38:32;;;;;;;52.72;30.35;;;4.80;99.90;;;;;;5030054;28;20060;-68
2022/02/18 04:41:38;;;;;;;57.72;33.55;;;4.70;99.90;;;;;;5031152;28;20527;-68
2022/02/18 04:44:43;;;;;;;58.35;32.75;;;4.70;99.90;;;;;;5030619;28;20041;-68
2022/02/18 04:47:46;;;;;;;52.33;29.98;;;4.70;99.90;;;;;;5041320;28;20385;-68
2022/02/18 04:50:50;;;;;;;47.55;22.40;;;4.70;99.90;;;;;;5030677;28;20495;-68
2022/02/18 04:53:55;;;;;;;147.40;23.85;;;4.40;99.90;;;;;;5030503;28;20040;-68
2022/02/18 04:56:59;;;;;;;148.00;22.00;;;4.10;99.90;;;;;;5030431;28;20045;-68
2022/02/18 05:00:07;;;;;;;50.60;16.13;;;4.10;99.90;;;;;;5029921;28;20049;-68
2022/02/18 05:03:11;;;;;;;141.13;25.25;;;3.90;99.90;;;;;;5030025;28;20056;-68
2022/02/18 05:06:15;;;;;;;182.38;25.27;;;4.00;99.90;;;;;;5030114;28;20041;-68
2022/02/18 05:09:19;;;;;;;100.97;20.42;;;3.90;99.90;;;;;;5028687;28;20040;-68
2022/02/18 05:12:23;;;;;;;174.45;22.13;;;3.90;99.90;;;;;;5030401;28;20052;-68
2022/02/18 05:15:27;;;;;;;64.18;18.60;;;3.80;99.90;;;;;;5029949;28;20503;-68
2022/02/18 05:18:31;;;;;;;92.28;19.85;;;3.80;99.90;;;;;;5029423;28;20052;-68
2022/02/18 05:21:39;;;;;;;129.85;21.35;;;3.70;99.90;;;;;;5029537;28;20052;-68
2022/02/18 05:24:45;;;;;;;136.27;17.88;;;3.70;99.90;;;;;;5017338;28;20044;-68
2022/02/18 05:27:52;;;;;;;167.32;21.25;;;3.80;99.90;;;;;;5029796;28;20048;-68
2022/02/18 05:30:56;;;;;;;245.95;28.70;;;3.80;99.90;;;;;;5027562;28;20052;-68
2022/02/18 05:34:00;;;;;;;255.40;26.10;;;3.90;99.90;;;;;;5033366;28;20052;-68
2022/02/18 05:37:05;;;;;;;429.75;33.58;;;3.90;99.90;;;;;;5033572;28;20044;-68
2022/02/18 05:40:10;;;;;;;138.77;22.17;;;4.00;99.90;;;;;;5033432;28;20396;-68
2022/02/18 05:43:14;;;;;;;341.52;33.28;;;4.10;99.90;;;;;;5033448;28;20056;-68
2022/02/18 05:46:18;;;;;;;192.88;28.90;;;4.20;99.90;;;;;;5032367;28;20045;-68
2022/02/18 05:49:22;;;;;;;161.23;28.95;;;4.20;99.90;;;;;;5032769;28;20044;-68
2022/02/18 05:52:30;;;;;;;67.40;26.23;;;4.30;99.90;;;;;;5031973;28;20113;-68
2022/02/18 05:55:34;;;;;;;48.75;24.45;;;4.30;99.90;;;;;;5033201;28;20507;-68
2022/02/18 05:58:38;;;;;;;33.85;20.33;;;4.40;99.90;;;;;;5043206;28;20124;-68
2022/02/18 06:01:44;;;;;;;31.73;18.98;;;4.50;99.90;;;;;;5033161;28;20048;-68
2022/02/18 06:04:48;;;;;;;37.35;21.13;;;4.60;99.90;;;;;;5033341;28;20048;-69
2022/02/18 06:07:53;;;;;;;32.03;16.00;;;4.70;99.90;;;;;;5033186;28;20074;-68
2022/02/18 06:10:57;;;;;;;34.47;17.40;;;4.90;99.90;;;;;;5032657;28;20388;-68
2022/02/18 06:14:02;;;;;;;30.50;16.60;;;5.00;99.90;;;;;;5034105;28;20479;-68
2022/02/18 06:17:09;;;;;;;32.17;17.23;;;5.10;99.90;;;;;;5033196;28;20507;-68
2022/02/18 06:20:13;;;;;;;29.55;16.70;;;5.20;99.90;;;;;;5032362;28;20393;-68
2022/02/18 06:23:17;;;;;;;30.13;16.67;;;5.20;99.90;;;;;;5032744;28;20044;-68
2022/02/18 06:26:21;;;;;;;23.52;14.23;;;5.40;99.90;;;;;;5033582;28;20048;-67
2022/02/18 06:29:25;;;;;;;30.27;16.00;;;5.40;99.90;;;;;;5033301;28;20053;-67
2022/02/18 06:32:29;;;;;;;28.52;15.20;;;5.50;99.90;;;;;;5033230;28;20052;-68
2022/02/18 06:35:35;;;;;;;26.02;15.48;;;5.50;99.90;;;;;;5033138;28;20052;-68
2022/02/18 06:38:42;;;;;;;25.65;16.00;;;5.60;99.90;;;;;;5031775;28;20048;-68
2022/02/18 06:41:47;;;;;;;196.35;22.40;;;5.20;99.90;;;;;;5032539;28;20048;-68
2022/02/18 06:44:51;;;;;;;877.80;59.25;;;5.20;99.90;;;;;;5032259;28;20048;-68
2022/02/18 06:47:56;;;;;;;565.55;43.97;;;4.70;99.90;;;;;;5032153;28;20052;-68
2022/02/18 06:51:00;;;;;;;754.75;50.60;;;4.60;99.90;;;;;;5032408;28;20060;-68
2022/02/18 06:54:04;;;;;;;67.30;17.92;;;4.70;99.90;;;;;;5032387;28;20400;-67
2022/02/18 06:57:10;;;;;;;286.23;29.50;;;4.70;99.90;;;;;;5032242;28;20049;-68
2022/02/18 07:00:15;;;;;;;43.90;16.08;;;4.80;99.90;;;;;;5029480;28;20400;-69
2022/02/18 07:03:20;;;;;;;243.02;23.90;;;4.90;99.90;;;;;;5025730;28;20056;-69
2022/02/18 07:06:24;;;;;;;313.55;28.77;;;5.00;99.90;;;;;;5032314;28;20024;-69
2022/02/18 07:09:28;;;;;;;327.10;28.88;;;5.10;99.90;;;;;;5026093;28;20044;-68
2022/02/18 07:12:33;;;;;;;154.50;22.83;;;5.20;99.90;;;;;;5030409;28;20067;-69
2022/02/18 07:15:38;;;;;;;80.03;18.88;;;5.20;99.90;;;;;;5027227;28;20242;-69
2022/02/18 07:18:42;;;;;;;186.60;21.10;;;5.40;99.90;;;;;;5029456;28;20092;-69
2022/02/18 07:21:46;;;;;;;471.63;35.85;;;5.40;99.90;;;;;;5030514;28;20518;-69
2022/02/18 07:24:52;;;;;;;114.40;19.17;;;5.50;99.90;;;;;;5029093;28;20060;-69
2022/02/18 07:27:56;;;;;;;219.73;27.70;;;5.40;99.90;;;;;;5029164;28;20041;-69
2022/02/18 07:31:00;;;;;;;84.10;26.65;;;5.50;99.90;;;;;;5028115;28;20036;-69
2022/02/18 07:34:04;;;;;;;60.75;30.23;;;5.70;99.90;;;;;;5025790;28;20056;-69
2022/02/18 07:37:08;;;;;;;62.83;25.50;;;5.90;99.90;;;;;;5025966;28;20045;-69
2022/02/18 07:40:13;;;;;;;37.70;20.20;;;6.20;99.90;;;;;;5026770;28;20036;-69
2022/02/18 07:43:17;;;;;;;28.90;15.82;;;6.50;99.90;;;;;;5023253;28;20045;-69
2022/02/18 07:46:24;;;;;;;51.20;24.33;;;6.70;99.90;;;;;;5030135;28;20101;-69
2022/02/18 07:49:28;;;;;;;63.72;26.67;;;6.80;99.90;;;;;;5010571;28;20404;-69
2022/02/18 07:52:32;;;;;;;430.05;35.45;;;7.00;99.90;;;;;;5022686;28;20040;-69
2022/02/18 07:55:37;;;;;;;42.70;15.48;;;6.50;99.90;;;;;;5025784;28;20036;-69
2022/02/18 07:58:42;;;;;;;159.02;20.00;;;6.50;99.90;;;;;;5029522;28;20037;-69
2022/02/18 08:01:47;;;;;;;71.90;17.45;;;6.70;99.90;;;;;;5020819;28;20066;-70
2022/02/18 08:04:51;;;;;;;41.15;14.88;;;6.80;99.90;;;;;;5023442;28;20056;-69
2022/02/18 08:07:57;;;;;;;86.90;15.93;;;7.20;99.90;;;;;;5029468;28;20067;-69
2022/02/18 08:11:03;;;;;;;31.40;10.55;;;7.30;99.90;;;;;;5025533;28;20044;-69
2022/02/18 08:14:07;;;;;;;29.90;10.43;;;7.70;99.90;;;;;;5023855;28;20326;-70
2022/02/18 08:17:12;;;;;;;22.58;11.85;;;7.70;99.90;;;;;;5026506;28;20384;-69
2022/02/18 08:20:16;;;;;;;42.22;22.05;;;7.80;99.90;;;;;;5018938;28;20060;-70
2022/02/18 08:23:21;;;;;;;45.05;21.75;;;7.80;99.90;;;;;;5020781;28;20048;-69
2022/02/18 08:26:25;;;;;;;38.63;18.63;;;7.90;99.90;;;;;;5038490;28;20040;-69
2022/02/18 08:29:29;;;;;;;42.55;18.83;;;7.80;99.90;;;;;;5030463;28;20404;-69
2022/02/18 08:32:34;;;;;;;48.90;18.13;;;7.90;99.90;;;;;;5028497;28;20048;-70
2022/02/18 08:35:39;;;;;;;43.97;17.30;;;8.20;99.90;;;;;;5024568;28;20056;-70
2022/02/18 08:38:43;;;;;;;49.55;19.00;;;8.90;99.90;;;;;;5028292;28;20044;-70
2022/02/18 08:41:47;;;;;;;68.90;30.73;;;9.20;99.90;;;;;;5026414;28;20384;-70
2022/02/18 08:44:51;;;;;;;67.00;31.33;;;9.50;99.90;;;;;;5029159;28;20048;-69
2022/02/18 08:47:56;;;;;;;48.38;24.38;;;10.10;99.90;;;;;;5029006;28;20396;-70
2022/02/18 08:51:01;;;;;;;31.33;15.68;;;10.30;99.90;;;;;;5028661;28;20491;-70
2022/02/18 08:54:06;;;;;;;27.35;14.50;;;11.00;99.90;;;;;;5028099;28;20048;-70
2022/02/18 08:57:11;;;;;;;34.63;15.35;;;12.20;99.90;;;;;;5029027;28;20048;-70
2022/02/18 09:00:19;;;;;;;43.17;16.83;;;11.40;99.90;;;;;;5020240;28;20044;-70
2022/02/18 09:03:24;;;;;;;36.22;15.13;;;10.20;99.90;;;;;;5020437;28;20492;-70
2022/02/18 09:06:31;;;;;;;37.53;16.23;;;9.80;99.90;;;;;;5026090;28;20040;-70
2022/02/18 09:09:35;;;;;;;36.35;16.25;;;10.00;99.90;;;;;;5029689;28;20036;-70
2022/02/18 09:12:40;;;;;;;41.08;18.52;;;10.10;99.90;;;;;;5031467;28;20049;-70
2022/02/18 09:15:44;;;;;;;49.28;17.80;;;10.30;99.90;;;;;;5027099;28;20385;-70
2022/02/18 09:18:55;;;;;;;37.58;19.10;;;10.20;99.90;;;;;;5028548;28;20040;-70
2022/02/18 09:21:59;;;;;;;38.78;17.92;;;10.80;99.90;;;;;;5030131;28;20392;-70
2022/02/18 09:25:04;;;;;;;34.28;16.38;;;11.60;99.90;;;;;;5031018;28;20076;-70
2022/02/18 09:28:09;;;;;;;34.58;16.25;;;13.00;99.90;;;;;;5041870;28;20044;-71
2022/02/18 09:31:15;;;;;;;33.33;16.13;;;15.30;99.90;;;;;;5025183;28;20044;-71
2022/02/18 09:34:21;;;;;;;27.05;15.13;;;15.00;99.90;;;;;;5032279;28;20048;-71
2022/02/18 09:37:25;;;;;;;21.95;13.18;;;16.00;99.90;;;;;;5029612;28;20037;-71
2022/02/18 09:40:29;;;;;;;30.13;15.27;;;17.60;99.90;;;;;;5024959;28;20041;-71
2022/02/18 09:43:33;;;;;;;22.75;13.48;;;17.60;99.90;;;;;;5026127;28;20045;-71
2022/02/18 09:46:40;;;;;;;21.48;13.60;;;21.10;99.90;;;;;;5030414;28;20637;-71
2022/02/18 09:49:45;;;;;;;20.77;13.02;;;23.30;98.20;;;;;;5027264;28;20037;-72
2022/02/18 09:52:50;;;;;;;26.58;17.35;;;23.20;96.80;;;;;;5027762;28;20052;-71
2022/02/18 09:55:56;;;;;;;21.42;15.00;;;21.00;99.50;;;;;;5026535;28;20373;-71
2022/02/18 09:59:04;;;;;;;23.08;14.68;;;20.80;97.60;;;;;;5030439;28;20064;-71
2022/02/18 10:02:11;;;;;;;18.48;11.52;;;22.70;97.90;;;;;;5029882;28;20041;-71
2022/02/18 10:05:16;;;;;;;13.25;8.60;;;24.50;95.30;;;;;;5025433;28;20056;-72
2022/02/18 10:08:22;;;;;;;14.55;9.90;;;22.10;96.60;;;;;;5031323;28;20633;-71
2022/02/18 10:11:27;;;;;;;21.60;11.77;;;19.90;99.90;;;;;;5032427;28;20040;-71
2022/02/18 10:14:54;;;;;;;18.10;12.30;;;16.40;99.90;;;;;;5025917;28;20041;-71
2022/02/18 10:18:00;;;;;;;17.20;10.55;;;15.90;99.90;;;;;;5030789;28;20051;-71
2022/02/18 10:21:13;;;;;;;15.80;10.38;;;17.80;99.90;;;;;;5033218;28;20049;-71
2022/02/18 10:24:20;;;;;;;16.95;10.50;;;19.40;99.90;;;;;;5025756;28;20049;-71
2022/02/18 10:27:45;;;;;;;23.88;11.45;;;18.60;99.90;;;;;;5026900;28;20048;-71
2022/02/18 10:31:01;;;;;;;16.42;11.15;;;18.50;99.90;;;;;;5029063;28;20415;-71
2022/02/18 10:34:08;;;;;;;21.00;12.43;;;16.20;99.90;;;;;;5031481;28;20052;-71
2022/02/18 10:37:12;;;;;;;19.00;10.98;;;16.30;99.90;;;;;;5031612;28;20052;-71
2022/02/18 10:40:17;;;;;;;21.50;10.63;;;16.60;99.90;;;;;;5022240;28;20057;-71
2022/02/18 10:43:25;;;;;;;16.10;10.35;;;17.90;99.90;;;;;;5030631;28;20044;-71
2022/02/18 10:46:55;;;;;;;17.77;9.00;;;20.50;99.90;;;;;;5032442;28;20048;-72
2022/02/18 10:49:59;;;;;;;19.02;10.52;;;23.30;98.60;;;;;;5016937;28;20044;-72
2022/02/18 10:53:20;;;;;;;14.95;10.20;;;19.90;99.90;;;;;;5028831;28;20033;-72
2022/02/18 10:56:29;;;;;;;13.60;8.93;;;18.80;99.90;;;;;;5024884;28;20495;-71
2022/02/18 10:59:34;;;;;;;17.42;11.05;;;19.90;99.90;;;;;;5026374;28;20037;-72
2022/02/18 11:02:39;;;;;;;17.05;10.10;;;19.40;99.90;;;;;;5023161;28;20044;-71
2022/02/18 11:05:45;;;;;;;14.15;9.75;;;19.40;99.90;;;;;;5028801;28;20515;-71
2022/02/18 11:08:55;;;;;;;16.55;9.98;;;20.00;99.90;;;;;;5028389;28;20048;-72
2022/02/18 11:12:06;;;;;;;;;;;19.70;99.90;;;;;;5030450;28;20036;-72
2022/02/18 11:15:12;;;;;;;14.30;9.23;;;22.20;99.90;;;;;;5025942;28;19916;-72
2022/02/18 11:18:17;;;;;;;14.27;9.57;;;19.90;99.90;;;;;;5026127;28;20064;-72
2022/02/18 11:21:22;;;;;;;16.33;10.55;;;19.90;99.90;;;;;;5028530;28;20342;-72
2022/02/18 11:24:28;;;;;;;16.95;10.90;;;20.10;99.90;;;;;;5031085;28;20045;-71
2022/02/18 11:27:35;;;;;;;18.23;11.55;;;19.00;99.90;;;;;;5020332;28;20048;-72
2022/02/18 11:30:44;;;;;;;18.40;11.43;;;19.30;99.90;;;;;;5029248;28;20392;-71
2022/02/18 11:34:00;;;;;;;21.35;11.40;;;18.00;99.90;;;;;;5028954;28;20056;-71
2022/02/18 11:37:07;;;;;;;21.38;12.68;;;16.90;99.90;;;;;;5029841;28;20041;-71
2022/02/18 11:40:23;;;;;;;18.88;12.48;;;15.30;99.90;;;;;;5026926;28;20270;-70
2022/02/18 11:43:34;;;;;;;21.23;12.77;;;15.00;99.90;;;;;;5027692;28;20519;-71
2022/02/18 11:46:38;;;;;;;21.58;12.43;;;14.60;99.90;;;;;;5023795;28;20056;-71
2022/02/18 11:49:43;;;;;;;21.58;12.63;;;14.50;99.90;;;;;;5023987;28;20045;-71
2022/02/18 11:52:49;;;;;;;17.38;11.55;;;14.30;99.90;;;;;;5024685;28;20044;-71
2022/02/18 11:55:53;;;;;;;16.90;11.68;;;15.60;99.90;;;;;;5024646;28;20048;-71
2022/02/18 11:59:02;;;;;;;21.83;10.95;;;16.30;99.90;;;;;;5024161;28;20037;-70
2022/02/18 12:02:09;;;;;;;16.05;10.63;;;16.10;99.90;;;;;;5019009;28;20377;-71
2022/02/18 12:05:15;;;;;;;17.00;9.93;;;18.80;99.90;;;;;;5027204;28;20420;-71
2022/02/18 12:08:29;;;;;;;15.18;8.77;;;21.10;99.90;;;;;;5022998;28;20495;-71
2022/02/18 12:11:56;;;;;;;16.50;9.00;;;22.20;99.90;;;;;;5025763;28;20392;-71
2022/02/18 12:15:20;;;;;;;15.48;8.63;;;20.70;99.90;;;;;;5027424;28;20048;-70
2022/02/18 12:18:24;;;;;;;15.75;8.90;;;18.70;99.90;;;;;;5024289;28;20519;-71
2022/02/18 12:21:29;;;;;;;12.27;8.45;;;18.20;99.90;;;;;;5023935;28;20049;-71
2022/02/18 12:24:33;;;;;;;12.50;8.13;;;18.10;99.90;;;;;;5028313;28;20510;-71
2022/02/18 12:27:38;;;;;;;17.70;8.68;;;18.50;99.90;;;;;;5026994;28;20060;-71
2022/02/18 12:30:52;;;;;;;13.27;7.80;;;17.20;99.90;;;;;;5019709;28;20052;-70
2022/02/18 12:33:57;;;;;;;12.15;7.45;;;18.20;99.90;;;;;;5023977;28;20041;-71
2022/02/18 12:37:02;;;;;;;15.20;8.55;;;18.30;99.90;;;;;;5023436;28;20403;-72
2022/02/18 12:40:17;;;;;;;13.43;7.47;;;16.20;99.90;;;;;;5027319;28;20399;-71
2022/02/18 12:43:21;;;;;;;10.98;8.00;;;16.60;99.90;;;;;;5021697;28;20048;-71
2022/02/18 12:46:25;;;;;;;14.77;7.93;;;17.30;99.90;;;;;;5021604;28;20056;-71
2022/02/18 12:49:43;;;;;;;10.50;7.28;;;16.80;99.90;;;;;;5027616;28;20048;-71
2022/02/18 12:52:53;;;;;;;11.05;6.50;;;16.80;99.90;;;;;;5024270;28;20036;-71
2022/02/18 12:55:57;;;;;;;15.00;7.65;;;17.10;99.90;;;;;;5027864;28;20227;-70
2022/02/18 12:59:10;;;;;;;12.75;6.40;;;16.60;99.90;;;;;;5028004;28;20044;-71
2022/02/18 13:02:37;;;;;;;18.95;6.03;;;16.20;99.90;;;;;;5026391;28;20033;-70
2022/02/18 13:05:42;;;;;;;12.38;5.82;;;15.80;99.90;;;;;;5032861;28;20052;-70
2022/02/18 13:08:47;;;;;;;12.63;7.30;;;14.60;99.90;;;;;;5023875;28;20496;-70
2022/02/18 13:11:51;;;;;;;12.60;6.68;;;14.00;99.90;;;;;;5019852;28;20041;-70
2022/02/18 13:15:23;;;;;;;14.40;6.82;;;13.90;99.90;;;;;;5020652;28;20049;-70
2022/02/18 13:18:28;;;;;;;12.02;7.93;;;13.60;99.90;;;;;;5016243;28;20543;-70
2022/02/18 13:21:34;;;;;;;12.00;7.60;;;13.40;99.90;;;;;;5015172;28;20491;-70
2022/02/18 13:24:38;;;;;;;14.82;7.70;;;13.20;99.90;;;;;;5020426;28;20076;-70
2022/02/18 13:27:42;;;;;;;14.18;8.05;;;13.50;99.90;;;;;;5019943;28;20049;-71
2022/02/18 13:30:50;;;;;;;12.48;7.80;;;13.40;99.90;;;;;;5020452;28;20041;-70
2022/02/18 13:33:54;;;;;;;14.50;7.75;;;12.80;99.90;;;;;;5019888;28;20053;-69
2022/02/18 13:36:59;;;;;;;13.02;6.95;;;12.70;99.90;;;;;;5022069;28;20523;-70
2022/02/18 13:40:04;;;;;;;10.52;6.40;;;13.40;99.90;;;;;;5020026;28;20048;-70
2022/02/18 13:43:08;;;;;;;14.40;6.72;;;13.80;99.90;;;;;;5023077;28;20493;-70
2022/02/18 13:46:33;;;;;;;13.40;6.97;;;14.00;99.90;;;;;;5020763;28;20208;-70
2022/02/18 13:49:38;;;;;;;18.42;11.07;;;13.70;99.90;;;;;;5024028;28;20040;-70
2022/02/18 13:52:43;;;;;;;12.98;8.32;;;13.20;99.90;;;;;;5022455;28;20137;-70
2022/02/18 13:55:50;;;;;;;15.90;7.70;;;12.90;99.90;;;;;;5013457;28;20041;-69
2022/02/18 13:59:27;;;;;;;14.70;8.15;;;12.90;99.90;;;;;;5025336;28;20538;-70
2022/02/18 14:02:32;;;;;;;13.65;8.57;;;12.80;99.90;;;;;;5025133;28;20068;-69
2022/02/18 14:05:36;;;;;;;15.70;7.15;;;12.60;99.90;;;;;;5019118;28;20041;-70
2022/02/18 14:08:40;;;;;;;15.23;6.47;;;12.80;99.90;;;;;;5027871;28;20032;-70
2022/02/18 14:11:49;;;;;;;10.48;6.03;;;13.10;99.90;;;;;;5024076;28;20044;-70
2022/02/18 14:14:57;;;;;;;10.93;6.68;;;13.40;99.90;;;;;;5022214;28;20041;-70
2022/02/18 14:18:08;;;;;;;11.48;6.75;;;13.50;99.90;;;;;;5024176;28;20048;-70
2022/02/18 14:21:19;;;;;;;16.23;6.72;;;13.70;99.90;;;;;;5029328;28;20037;-70
2022/02/18 14:24:35;;;;;;;21.63;11.57;;;13.60;99.90;;;;;;5025511;28;20044;-70
2022/02/18 14:27:39;;;;;;;17.45;8.20;;;14.00;99.90;;;;;;5022410;28;20044;-70
2022/02/18 14:30:46;;;;;;;17.15;8.88;;;14.00;99.90;;;;;;5023455;28;20045;-70
2022/02/18 14:34:01;;;;;;;14.80;8.32;;;13.90;99.90;;;;;;5022539;28;20064;-70
2022/02/18 14:37:05;;;;;;;15.55;7.68;;;13.80;99.90;;;;;;5023339;28;20057;-66
2022/02/18 14:40:15;;;;;;;21.00;9.43;;;13.60;99.90;;;;;;5021328;28;20041;-67
2022/02/18 14:43:21;;;;;;;19.25;9.27;;;13.60;99.90;;;;;;5025493;28;20037;-66
2022/02/18 14:46:26;;;;;;;20.75;10.48;;;13.50;99.90;;;;;;5017868;28;20045;-66
2022/02/18 14:49:31;;;;;;;19.92;8.70;;;13.60;99.90;;;;;;5037928;28;20136;-67
2022/02/18 14:52:34;;;;;;;11.75;5.40;;;13.80;99.90;;;;;;5013782;28;20500;-67
2022/02/18 14:55:40;;;;;;;12.20;5.28;;;14.00;99.90;;;;;;5031455;28;20051;-66
2022/02/18 14:58:44;;;;;;;11.18;4.07;;;14.10;99.90;;;;;;5026914;28;20381;-66
2022/02/18 15:01:48;;;;;;;10.48;4.93;;;14.20;99.90;;;;;;5025111;28;20057;-67
2022/02/18 15:04:52;;;;;;;10.98;5.07;;;14.30;99.90;;;;;;5025168;28;20057;-67
2022/02/18 15:07:57;;;;;;;9.52;4.47;;;13.90;99.90;;;;;;5025241;28;20049;-66
2022/02/18 15:11:01;;;;;;;10.85;5.20;;;13.90;99.90;;;;;;5028263;28;20048;-66
2022/02/18 15:14:06;;;;;;;20.95;11.35;;;14.00;99.90;;;;;;5018671;28;20052;-67
2022/02/18 15:17:15;;;;;;;26.90;13.93;;;14.10;99.90;;;;;;5029732;28;20503;-67
2022/02/18 15:20:20;;;;;;;18.58;6.60;;;14.10;99.90;;;;;;5024100;28;20048;-66
2022/02/18 15:23:24;;;;;;;22.67;9.73;;;14.20;99.90;;;;;;5029790;28;20044;-67
2022/02/18 15:26:28;;;;;;;16.67;9.13;;;14.20;99.90;;;;;;5027676;28;20036;-67
2022/02/18 15:36:20;;;;;;;17.23;7.03;;;14.40;99.90;;;;;;5027474;28;20044;-66
2022/02/18 15:42:47;;;;;;;17.70;9.98;;;14.60;99.90;;;;;;5020680;28;20048;-67
2022/02/18 15:45:51;;;;;;;15.52;7.70;;;14.70;99.90;;;;;;5026943;28;20040;-67
2022/02/18 15:48:55;;;;;;;14.82;7.43;;;14.70;99.90;;;;;;5031186;28;20053;-66
2022/02/18 15:52:00;;;;;;;14.73;7.65;;;14.70;99.90;;;;;;5029346;28;20412;-67
2022/02/18 15:55:04;;;;;;;14.63;6.60;;;15.00;99.90;;;;;;5027530;28;20068;-67
2022/02/18 15:58:09;;;;;;;10.65;5.70;;;15.30;99.90;;;;;;5027137;28;20052;-66
2022/02/18 16:01:14;;;;;;;10.32;4.97;;;15.10;99.90;;;;;;5030716;28;20044;-67
2022/02/18 16:04:33;;;;;;;11.90;5.53;;;14.90;99.90;;;;;;5030135;28;20052;-67
2022/02/18 16:07:39;;;;;;;10.20;4.55;;;14.70;99.90;;;;;;5029296;28;20504;-67